sensor_id;sensor_type;location;lat;lon;timestamp;pressure;altitude;pressure_sealevel;temperature;humidity
49104;BME280;34915;52.926;11.116;2022-11-02T00:01:40;101640.19;;;8.70;100.00
49104;BME280;34915;52.926;11.116;2022-11-02T00:04:07;101638.44;;;8.87;100.00
49104;BME280;34915;52.926;11.116;2022-11-02T00:06:33;101634.00;;;9.04;100.00
49104;BME280;34915;52.926;11.116;2022-11-02T00:09:02;101631.06;;;9.10;100.00
49104;BME280;34915;52.926;11.116;2022-11-02T00:11:30;101633.22;;;9.19;100.00
49104;BME280;34915;52.926;11.116;2022-11-02T00:13:59;101629.09;;;9.31;100.00
49104;BME280;34915;52.926;11.116;2022-11-02T00:16:25;101636.28;;;9.29;99.47
49104;BME280;34915;52.926;11.116;2022-11-02T00:18:56;101631.66;;;9.32;100.00
49104;BME280;34915;52.926;11.116;2022-11-02T00:21:24;101629.09;;;9.31;99.55
49104;BME280;34915;52.926;11.116;2022-11-02T00:23:52;101630.81;;;9.32;100.00
49104;BME280;34915;52.926;11.116;2022-11-02T00:26:19;101631.03;;;9.44;98.38
49104;BME280;34915;52.926;11.116;2022-11-02T00:28:44;101643.16;;;9.48;96.68
49104;BME280;34915;52.926;11.116;2022-11-02T00:31:10;101643.31;;;9.45;98.16
49104;BME280;34915;52.926;11.116;2022-11-02T00:33:36;101642.47;;;9.44;97.93
49104;BME280;34915;52.926;11.116;2022-11-02T00:36:04;101633.06;;;9.39;97.97
49104;BME280;34915;52.926;11.116;2022-11-02T00:38:33;101634.00;;;9.38;97.53
49104;BME280;34915;52.926;11.116;2022-11-02T00:41:01;101640.41;;;9.34;98.75
49104;BME280;34915;52.926;11.116;2022-11-02T00:43:27;101631.66;;;9.32;99.10
49104;BME280;34915;52.926;11.116;2022-11-02T00:45:53;101640.06;;;9.40;98.43
49104;BME280;34915;52.926;11.116;2022-11-02T00:48:18;101631.50;;;9.35;98.14
49104;BME280;34915;52.926;11.116;2022-11-02T00:50:44;101631.50;;;9.35;97.33
49104;BME280;34915;52.926;11.116;2022-11-02T00:53:09;101627.09;;;9.35;98.27
49104;BME280;34915;52.926;11.116;2022-11-02T00:55:35;101625.63;;;9.30;99.52
49104;BME280;34915;52.926;11.116;2022-11-02T00:58:01;101629.41;;;9.25;97.44
49104;BME280;34915;52.926;11.116;2022-11-02T01:00:26;101640.84;;;9.25;97.72
49104;BME280;34915;52.926;11.116;2022-11-02T01:02:59;101627.69;;;9.24;98.44
49104;BME280;34915;52.926;11.116;2022-11-02T01:05:28;101628.91;;;9.18;98.91
49104;BME280;34915;52.926;11.116;2022-11-02T01:07:53;101623.59;;;9.18;99.37
49104;BME280;34915;52.926;11.116;2022-11-02T01:10:22;101613.63;;;9.23;98.10
49104;BME280;34915;52.926;11.116;2022-11-02T01:12:50;101606.56;;;9.24;97.88
49104;BME280;34915;52.926;11.116;2022-11-02T01:15:15;101603.38;;;9.17;98.22
49104;BME280;34915;52.926;11.116;2022-11-02T01:17:41;101600.91;;;9.14;99.61
49104;BME280;34915;52.926;11.116;2022-11-02T01:20:07;101602.94;;;9.09;99.09
49104;BME280;34915;52.926;11.116;2022-11-02T01:22:32;101600.28;;;9.09;98.89
49104;BME280;34915;52.926;11.116;2022-11-02T01:24:58;101604.47;;;9.13;98.54
49104;BME280;34915;52.926;11.116;2022-11-02T01:27:26;101602.78;;;9.12;98.46
49104;BME280;34915;52.926;11.116;2022-11-02T01:29:55;101597.94;;;9.20;97.92
49104;BME280;34915;52.926;11.116;2022-11-02T01:32:21;101597.47;;;9.29;97.66
49104;BME280;34915;52.926;11.116;2022-11-02T01:34:46;101599.25;;;9.29;96.50
49104;BME280;34915;52.926;11.116;2022-11-02T01:37:15;101601.66;;;9.33;96.64
49104;BME280;34915;52.926;11.116;2022-11-02T01:39:43;101600.72;;;9.34;95.80
49104;BME280;34915;52.926;11.116;2022-11-02T01:42:25;101595.72;;;9.45;97.74
49104;BME280;34915;52.926;11.116;2022-11-02T01:44:52;101590.69;;;9.40;96.55
49104;BME280;34915;52.926;11.116;2022-11-02T01:47:25;101594.31;;;9.38;96.88
49104;BME280;34915;52.926;11.116;2022-11-02T01:49:57;101588.72;;;9.44;97.32
49104;BME280;34915;52.926;11.116;2022-11-02T01:52:31;101584.97;;;9.48;96.12
49104;BME280;34915;52.926;11.116;2022-11-02T01:55:03;101581.56;;;9.46;95.68
49104;BME280;34915;52.926;11.116;2022-11-02T01:57:34;101588.56;;;9.47;97.18
49104;BME280;34915;52.926;11.116;2022-11-02T02:00:13;101581.75;;;9.43;98.81
49104;BME280;34915;52.926;11.116;2022-11-02T02:02:46;101573.19;;;9.38;97.56
49104;BME280;34915;52.926;11.116;2022-11-02T02:05:14;101571.66;;;9.34;99.29
49104;BME280;34915;52.926;11.116;2022-11-02T02:07:42;101575.38;;;9.30;98.62
49104;BME280;34915;52.926;11.116;2022-11-02T02:10:08;101570.25;;;9.27;99.20
49104;BME280;34915;52.926;11.116;2022-11-02T02:12:38;101561.53;;;9.25;98.74
49104;BME280;34915;52.926;11.116;2022-11-02T02:15:09;101567.53;;;9.29;99.20
49104;BME280;34915;52.926;11.116;2022-11-02T02:28:44;101562.59;;;9.38;98.85
49104;BME280;34915;52.926;11.116;2022-11-02T02:31:27;101561.06;;;9.34;98.62
49104;BME280;34915;52.926;11.116;2022-11-02T02:34:03;101561.75;;;9.37;98.43
49104;BME280;34915;52.926;11.116;2022-11-02T02:36:37;101560.13;;;9.35;97.79
49104;BME280;34915;52.926;11.116;2022-11-02T02:44:22;101558.59;;;9.31;98.13
49104;BME280;34915;52.926;11.116;2022-11-02T02:47:04;101550.50;;;9.34;99.39
49104;BME280;34915;52.926;11.116;2022-11-02T02:49:58;101555.78;;;9.34;98.98
49104;BME280;34915;52.926;11.116;2022-11-02T02:52:23;101552.50;;;9.29;99.57
49104;BME280;34915;52.926;11.116;2022-11-02T02:54:54;101548.03;;;9.31;99.47
49104;BME280;34915;52.926;11.116;2022-11-02T02:57:23;101549.78;;;9.31;98.46
49104;BME280;34915;52.926;11.116;2022-11-02T02:59:51;101536.66;;;9.29;98.37
49104;BME280;34915;52.926;11.116;2022-11-02T03:04:42;101541.59;;;9.35;99.30
49104;BME280;34915;52.926;11.116;2022-11-02T03:07:10;101541.78;;;9.32;98.98
49104;BME280;34915;52.926;11.116;2022-11-02T03:09:49;101552.50;;;9.29;98.99
49104;BME280;34915;52.926;11.116;2022-11-02T03:12:27;101550.50;;;9.34;99.80
49104;BME280;34915;52.926;11.116;2022-11-02T03:17:52;101543.50;;;9.33;98.60
49104;BME280;34915;52.926;11.116;2022-11-02T03:20:32;101534.97;;;9.28;99.78
49104;BME280;34915;52.926;11.116;2022-11-02T03:28:34;101537.31;;;9.17;100.00
49104;BME280;34915;52.926;11.116;2022-11-02T03:31:17;101535.75;;;9.13;100.00
49104;BME280;34915;52.926;11.116;2022-11-02T03:33:57;101540.25;;;9.28;99.27
49104;BME280;34915;52.926;11.116;2022-11-02T03:36:31;101538.38;;;9.30;100.00
49104;BME280;34915;52.926;11.116;2022-11-02T03:39:10;101537.88;;;9.39;99.89
49104;BME280;34915;52.926;11.116;2022-11-02T03:41:37;101528.22;;;9.38;100.00
49104;BME280;34915;52.926;11.116;2022-11-02T03:44:12;101529.19;;;9.37;100.00
49104;BME280;34915;52.926;11.116;2022-11-02T03:46:40;101524.72;;;9.37;100.00
49104;BME280;34915;52.926;11.116;2022-11-02T03:49:10;101529.19;;;9.37;100.00
49104;BME280;34915;52.926;11.116;2022-11-02T03:51:40;101534.13;;;9.43;100.00
49104;BME280;34915;52.926;11.116;2022-11-02T03:57:26;101526.97;;;9.45;100.00
49104;BME280;34915;52.926;11.116;2022-11-02T04:00:05;101527.28;;;9.39;100.00
49104;BME280;34915;52.926;11.116;2022-11-02T04:02:34;101516.22;;;9.48;100.00
49104;BME280;34915;52.926;11.116;2022-11-02T04:05:00;101524.06;;;9.49;100.00
49104;BME280;34915;52.926;11.116;2022-11-02T04:07:30;101522.91;;;9.55;100.00
49104;BME280;34915;52.926;11.116;2022-11-02T04:10:17;101519.31;;;9.56;100.00
49104;BME280;34915;52.926;11.116;2022-11-02T04:12:43;101520.84;;;9.60;100.00
49104;BME280;34915;52.926;11.116;2022-11-02T04:15:27;101529.56;;;9.77;99.53
49104;BME280;34915;52.926;11.116;2022-11-02T04:17:52;101526.84;;;9.79;100.00
49104;BME280;34915;52.926;11.116;2022-11-02T04:20:36;101529.75;;;9.89;100.00
49104;BME280;34915;52.926;11.116;2022-11-02T04:23:01;101533.03;;;9.94;100.00
49104;BME280;34915;52.926;11.116;2022-11-02T04:25:52;101530.47;;;10.08;98.88
49104;BME280;34915;52.926;11.116;2022-11-02T04:28:17;101530.97;;;10.30;97.97
49104;BME280;34915;52.926;11.116;2022-11-02T04:30:43;101529.59;;;10.38;96.97
49104;BME280;34915;52.926;11.116;2022-11-02T04:33:08;101531.63;;;10.49;95.14
49104;BME280;34915;52.926;11.116;2022-11-02T04:35:52;101536.72;;;10.52;95.58
49104;BME280;34915;52.926;11.116;2022-11-02T04:38:18;101534.66;;;10.57;95.38
49104;BME280;34915;52.926;11.116;2022-11-02T04:41:02;101543.06;;;10.79;95.11
49104;BME280;34915;52.926;11.116;2022-11-02T04:43:46;101538.34;;;10.83;96.17
49104;BME280;34915;52.926;11.116;2022-11-02T04:46:11;101525.84;;;10.85;96.72
49104;BME280;34915;52.926;11.116;2022-11-02T04:48:37;101528.50;;;10.99;96.92
49104;BME280;34915;52.926;11.116;2022-11-02T04:51:02;101515.06;;;10.88;97.87
49104;BME280;34915;52.926;11.116;2022-11-02T04:53:28;101524.56;;;10.92;96.97
49104;BME280;34915;52.926;11.116;2022-11-02T04:55:53;101512.47;;;11.02;95.51
49104;BME280;34915;52.926;11.116;2022-11-02T04:58:19;101526.84;;;10.98;97.33
49104;BME280;34915;52.926;11.116;2022-11-02T05:00:44;101529.03;;;11.06;97.64
49104;BME280;34915;52.926;11.116;2022-11-02T05:03:12;101521.53;;;10.98;97.53
49104;BME280;34915;52.926;11.116;2022-11-02T05:05:38;101524.94;;;11.00;97.87
49104;BME280;34915;52.926;11.116;2022-11-02T05:08:03;101518.28;;;10.93;98.91
49104;BME280;34915;52.926;11.116;2022-11-02T05:10:29;101521.16;;;11.04;96.95
49104;BME280;34915;52.926;11.116;2022-11-02T05:12:58;101513.94;;;11.06;97.39
49104;BME280;34915;52.926;11.116;2022-11-02T05:15:25;101509.72;;;11.04;97.50
49104;BME280;34915;52.926;11.116;2022-11-02T05:17:50;101512.28;;;11.05;97.57
49104;BME280;34915;52.926;11.116;2022-11-02T05:20:16;101517.00;;;11.14;97.68
49104;BME280;34915;52.926;11.116;2022-11-02T05:22:42;101518.88;;;11.12;96.48
49104;BME280;34915;52.926;11.116;2022-11-02T05:25:08;101510.19;;;11.10;96.77
49104;BME280;34915;52.926;11.116;2022-11-02T05:27:34;101515.66;;;11.07;97.66
49104;BME280;34915;52.926;11.116;2022-11-02T05:29:59;101510.19;;;11.10;96.72
49104;BME280;34915;52.926;11.116;2022-11-02T05:32:28;101514.81;;;11.07;97.01
49104;BME280;34915;52.926;11.116;2022-11-02T05:34:53;101504.88;;;11.10;96.49
49104;BME280;34915;52.926;11.116;2022-11-02T05:37:19;101515.84;;;11.04;97.99
49104;BME280;34915;52.926;11.116;2022-11-02T05:39:44;101516.03;;;11.01;97.07
49104;BME280;34915;52.926;11.116;2022-11-02T05:42:10;101512.44;;;11.16;95.27
49104;BME280;34915;52.926;11.116;2022-11-02T05:44:35;101513.75;;;11.09;95.58
49104;BME280;34915;52.926;11.116;2022-11-02T05:47:01;101517.56;;;11.05;95.94
49104;BME280;34915;52.926;11.116;2022-11-02T05:49:27;101524.56;;;11.06;96.17
49104;BME280;34915;52.926;11.116;2022-11-02T05:51:53;101526.41;;;10.90;96.42
49104;BME280;34915;52.926;11.116;2022-11-02T05:54:19;101529.81;;;10.79;97.13
49104;BME280;34915;52.926;11.116;2022-11-02T05:56:45;101531.63;;;10.78;97.51
49104;BME280;34915;52.926;11.116;2022-11-02T05:59:10;101529.50;;;10.69;98.69
49104;BME280;34915;52.926;11.116;2022-11-02T06:01:36;101526.34;;;10.63;99.08
49104;BME280;34915;52.926;11.116;2022-11-02T06:04:01;101532.94;;;10.56;99.09
49104;BME280;34915;52.926;11.116;2022-11-02T06:06:27;101536.91;;;10.49;100.00
49104;BME280;34915;52.926;11.116;2022-11-02T06:08:53;101534.00;;;10.53;99.54
49104;BME280;34915;52.926;11.116;2022-11-02T06:11:19;101538.47;;;10.37;100.00
49104;BME280;34915;52.926;11.116;2022-11-02T06:13:48;101548.22;;;10.37;100.00
49104;BME280;34915;52.926;11.116;2022-11-02T06:16:14;101547.69;;;10.46;100.00
49104;BME280;34915;52.926;11.116;2022-11-02T06:18:39;101550.38;;;10.60;98.44
49104;BME280;34915;52.926;11.116;2022-11-02T06:21:05;101553.28;;;10.71;98.47
49104;BME280;34915;52.926;11.116;2022-11-02T06:23:31;101544.19;;;10.75;98.01
49104;BME280;34915;52.926;11.116;2022-11-02T06:25:58;101551.00;;;10.79;99.07
49104;BME280;34915;52.926;11.116;2022-11-02T06:28:24;101553.09;;;10.74;98.26
49104;BME280;34915;52.926;11.116;2022-11-02T06:30:50;101548.53;;;10.76;98.35
49104;BME280;34915;52.926;11.116;2022-11-02T06:33:16;101552.72;;;10.80;97.63
49104;BME280;34915;52.926;11.116;2022-11-02T06:35:46;101557.66;;;10.85;96.58
49104;BME280;34915;52.926;11.116;2022-11-02T06:38:12;101555.75;;;10.87;96.16
49104;BME280;34915;52.926;11.116;2022-11-02T06:40:38;101551.00;;;10.79;98.08
49104;BME280;34915;52.926;11.116;2022-11-02T06:43:03;101553.09;;;10.74;97.44
49104;BME280;34915;52.926;11.116;2022-11-02T06:45:29;101557.03;;;10.67;97.82
49104;BME280;34915;52.926;11.116;2022-11-02T06:47:54;101556.09;;;10.68;98.06
49104;BME280;34915;52.926;11.116;2022-11-02T06:50:20;101569.16;;;10.71;97.72
49104;BME280;34915;52.926;11.116;2022-11-02T06:52:47;101567.44;;;10.70;97.65
49104;BME280;34915;52.926;11.116;2022-11-02T06:55:14;101567.44;;;10.70;97.84
49104;BME280;34915;52.926;11.116;2022-11-02T06:57:40;101559.56;;;10.83;97.64
49104;BME280;34915;52.926;11.116;2022-11-02T07:00:09;101559.00;;;10.92;96.69
49104;BME280;34915;52.926;11.116;2022-11-02T07:02:37;101573.81;;;11.10;94.98
49104;BME280;34915;52.926;11.116;2022-11-02T07:05:03;101571.91;;;11.12;95.17
49104;BME280;34915;52.926;11.116;2022-11-02T07:07:29;101574.19;;;11.04;96.15
49104;BME280;34915;52.926;11.116;2022-11-02T07:09:54;101573.81;;;11.10;95.74
49104;BME280;34915;52.926;11.116;2022-11-02T07:12:20;101586.94;;;11.27;93.58
49104;BME280;34915;52.926;11.116;2022-11-02T07:14:45;101584.28;;;11.27;94.81
49104;BME280;34915;52.926;11.116;2022-11-02T07:17:11;101582.56;;;11.40;93.83
49104;BME280;34915;52.926;11.116;2022-11-02T07:19:36;101586.19;;;11.39;93.35
49104;BME280;34915;52.926;11.116;2022-11-02T07:22:02;101591.13;;;11.45;93.37
49104;BME280;34915;52.926;11.116;2022-11-02T07:24:27;101590.41;;;11.57;94.16
49104;BME280;34915;52.926;11.116;2022-11-02T07:26:53;101584.53;;;11.66;92.79
49104;BME280;34915;52.926;11.116;2022-11-02T07:29:19;101581.31;;;11.61;93.20
49104;BME280;34915;52.926;11.116;2022-11-02T07:31:44;101585.28;;;11.54;93.60
49104;BME280;34915;52.926;11.116;2022-11-02T07:34:11;101588.31;;;11.62;92.29
49104;BME280;34915;52.926;11.116;2022-11-02T07:36:36;101586.97;;;11.69;92.89
49104;BME280;34915;52.926;11.116;2022-11-02T07:39:02;101596.47;;;11.73;93.04
49104;BME280;34915;52.926;11.116;2022-11-02T07:41:28;101588.88;;;11.67;92.71
49104;BME280;34915;52.926;11.116;2022-11-02T07:43:54;101595.69;;;11.84;91.54
49104;BME280;34915;52.926;11.116;2022-11-02T07:46:19;101592.75;;;11.89;91.64
49104;BME280;34915;52.926;11.116;2022-11-02T07:48:46;101603.00;;;11.95;91.78
49104;BME280;34915;52.926;11.116;2022-11-02T07:51:11;101598.38;;;11.98;91.39
49104;BME280;34915;52.926;11.116;2022-11-02T07:53:37;101612.19;;;12.03;91.34
49104;BME280;34915;52.926;11.116;2022-11-02T07:56:03;101609.63;;;12.02;91.43
49104;BME280;34915;52.926;11.116;2022-11-02T07:58:29;101608.41;;;12.07;90.53
49104;BME280;34915;52.926;11.116;2022-11-02T08:00:57;101603.81;;;12.23;89.95
49104;BME280;34915;52.926;11.116;2022-11-02T08:03:23;101607.03;;;12.28;90.33
49104;BME280;34915;52.926;11.116;2022-11-02T08:05:49;101605.78;;;12.33;89.44
49104;BME280;34915;52.926;11.116;2022-11-02T08:08:17;101596.91;;;12.47;89.15
49104;BME280;34915;52.926;11.116;2022-11-02T08:10:44;101595.19;;;12.46;89.37
49104;BME280;34915;52.926;11.116;2022-11-02T08:13:13;101601.13;;;12.63;88.30
49104;BME280;34915;52.926;11.116;2022-11-02T08:15:39;101591.50;;;12.75;88.17
49104;BME280;34915;52.926;11.116;2022-11-02T08:18:08;101606.88;;;12.83;87.92
49104;BME280;34915;52.926;11.116;2022-11-02T08:20:36;101607.97;;;12.93;87.67
49104;BME280;34915;52.926;11.116;2022-11-02T08:23:02;101604.16;;;12.97;87.52
49104;BME280;34915;52.926;11.116;2022-11-02T08:25:28;101601.63;;;13.08;86.21
49104;BME280;34915;52.926;11.116;2022-11-02T08:27:58;101599.50;;;13.13;85.63
49104;BME280;34915;52.926;11.116;2022-11-02T08:30:26;101602.75;;;13.30;84.31
49104;BME280;34915;52.926;11.116;2022-11-02T08:32:52;101600.19;;;13.29;84.55
49104;BME280;34915;52.926;11.116;2022-11-02T08:35:17;101601.88;;;13.30;83.21
49104;BME280;34915;52.926;11.116;2022-11-02T08:37:43;101601.88;;;13.30;84.63
49104;BME280;34915;52.926;11.116;2022-11-02T08:40:09;101598.03;;;13.34;85.02
49104;BME280;34915;52.926;11.116;2022-11-02T08:42:35;101601.44;;;13.36;84.38
49104;BME280;34915;52.926;11.116;2022-11-02T08:45:05;101576.75;;;13.34;84.47
49104;BME280;34915;52.926;11.116;2022-11-02T08:47:39;101588.25;;;13.34;84.76
49104;BME280;34915;52.926;11.116;2022-11-02T08:50:05;101608.91;;;13.31;85.03
49104;BME280;34915;52.926;11.116;2022-11-02T08:52:34;101609.34;;;13.50;82.74
49104;BME280;34915;52.926;11.116;2022-11-02T08:55:00;101608.41;;;13.51;83.61
49104;BME280;34915;52.926;11.116;2022-11-02T08:57:28;101607.31;;;13.66;82.61
49104;BME280;34915;52.926;11.116;2022-11-02T08:59:53;101613.59;;;13.65;82.42
49104;BME280;34915;52.926;11.116;2022-11-02T09:02:19;101615.97;;;13.57;81.89
49104;BME280;34915;52.926;11.116;2022-11-02T09:04:45;101618.06;;;13.52;83.16
49104;BME280;34915;52.926;11.116;2022-11-02T09:07:11;101613.41;;;13.55;82.35
49104;BME280;34915;52.926;11.116;2022-11-02T09:09:36;101618.06;;;13.52;82.04
49104;BME280;34915;52.926;11.116;2022-11-02T09:12:02;101617.63;;;13.58;82.22
49104;BME280;34915;52.926;11.116;2022-11-02T09:14:28;101620.09;;;13.61;82.20
49104;BME280;34915;52.926;11.116;2022-11-02T09:16:53;101621.06;;;13.60;82.42
49104;BME280;34915;52.926;11.116;2022-11-02T09:19:19;101620.84;;;13.63;82.85
49104;BME280;34915;52.926;11.116;2022-11-02T09:21:45;101618.06;;;13.77;81.34
49104;BME280;34915;52.926;11.116;2022-11-02T09:24:12;101614.47;;;13.90;82.89
49104;BME280;34915;52.926;11.116;2022-11-02T09:26:38;101611.03;;;13.88;82.52
49104;BME280;34915;52.926;11.116;2022-11-02T09:29:03;101612.94;;;13.98;80.01
49104;BME280;34915;52.926;11.116;2022-11-02T09:31:29;101622.31;;;14.04;80.67
49104;BME280;34915;52.926;11.116;2022-11-02T09:33:54;101616.59;;;13.97;81.21
49104;BME280;34915;52.926;11.116;2022-11-02T09:36:20;101621.69;;;14.00;80.16
49104;BME280;34915;52.926;11.116;2022-11-02T09:38:45;101628.28;;;14.07;81.93
49104;BME280;34915;52.926;11.116;2022-11-02T09:41:36;101616.47;;;14.11;81.83
49104;BME280;34915;52.926;11.116;2022-11-02T09:46:33;101618.00;;;14.38;79.62
49104;BME280;34915;52.926;11.116;2022-11-02T09:49:15;101620.38;;;14.54;80.89
49104;BME280;34915;52.926;11.116;2022-11-02T09:56:41;101623.22;;;14.40;77.18
49104;BME280;34915;52.926;11.116;2022-11-02T09:59:13;101629.72;;;14.36;77.98
49104;BME280;34915;52.926;11.116;2022-11-02T10:04:30;101636.56;;;14.27;79.45
49104;BME280;34915;52.926;11.116;2022-11-02T10:09:56;101642.16;;;14.48;77.59
49104;BME280;34915;52.926;11.116;2022-11-02T10:12:36;101627.38;;;14.44;77.64
49104;BME280;34915;52.926;11.116;2022-11-02T10:15:18;101640.03;;;14.53;77.47
49104;BME280;34915;52.926;11.116;2022-11-02T10:17:47;101643.28;;;14.69;76.91
49104;BME280;34915;52.926;11.116;2022-11-02T10:20:35;101636.22;;;14.80;76.92
49104;BME280;34915;52.926;11.116;2022-11-02T10:23:06;101652.84;;;14.83;75.32
49104;BME280;34915;52.926;11.116;2022-11-02T10:25:34;101639.16;;;14.88;74.85
49104;BME280;34915;52.926;11.116;2022-11-02T10:28:09;101643.41;;;14.90;75.25
49104;BME280;34915;52.926;11.116;2022-11-02T10:30:37;101644.03;;;14.94;75.21
49104;BME280;34915;52.926;11.116;2022-11-02T10:33:09;101652.03;;;14.94;75.74
49104;BME280;34915;52.926;11.116;2022-11-02T10:41:42;101655.53;;;14.94;72.97
49104;BME280;34915;52.926;11.116;2022-11-02T10:44:19;101652.88;;;14.94;72.29
49104;BME280;34915;52.926;11.116;2022-11-02T10:52:13;101655.53;;;14.94;72.87
49104;BME280;34915;52.926;11.116;2022-11-02T10:54:40;101661.41;;;14.99;72.98
49104;BME280;34915;52.926;11.116;2022-11-02T10:57:11;101667.47;;;15.01;73.96
49104;BME280;34915;52.926;11.116;2022-11-02T10:59:37;101667.47;;;15.01;73.13
49104;BME280;34915;52.926;11.116;2022-11-02T11:02:10;101667.25;;;15.04;72.57
49104;BME280;34915;52.926;11.116;2022-11-02T11:04:36;101670.38;;;14.98;72.88
49104;BME280;34915;52.926;11.116;2022-11-02T11:07:27;101668.47;;;15.00;71.84
49104;BME280;34915;52.926;11.116;2022-11-02T11:09:53;101667.00;;;15.07;72.00
49104;BME280;34915;52.926;11.116;2022-11-02T11:12:31;101669.56;;;15.09;71.85
49104;BME280;34915;52.926;11.116;2022-11-02T11:14:59;101669.19;;;15.02;71.21
49104;BME280;34915;52.926;11.116;2022-11-02T11:17:37;101679.13;;;15.00;70.61
49104;BME280;34915;52.926;11.116;2022-11-02T11:20:07;101682.44;;;14.91;72.11
49104;BME280;34915;52.926;11.116;2022-11-02T11:23:15;101675.22;;;14.93;72.64
49104;BME280;34915;52.926;11.116;2022-11-02T11:25:56;101668.72;;;15.08;70.91
49104;BME280;34915;52.926;11.116;2022-11-02T11:28:23;101679.47;;;15.19;70.88
49104;BME280;34915;52.926;11.116;2022-11-02T11:31:01;101674.66;;;15.24;70.21
49104;BME280;34915;52.926;11.116;2022-11-02T11:33:29;101685.34;;;15.24;70.41
49104;BME280;34915;52.926;11.116;2022-11-02T11:35:55;101677.81;;;15.29;70.18
49104;BME280;34915;52.926;11.116;2022-11-02T11:38:23;101689.84;;;15.24;70.15
49104;BME280;34915;52.926;11.116;2022-11-02T11:40:54;101676.72;;;15.21;69.08
49104;BME280;34915;52.926;11.116;2022-11-02T11:43:30;101685.78;;;15.18;69.69
49104;BME280;34915;52.926;11.116;2022-11-02T11:46:06;101693.88;;;15.17;70.33
49104;BME280;34915;52.926;11.116;2022-11-02T11:48:49;101686.22;;;15.12;69.53
49104;BME280;34915;52.926;11.116;2022-11-02T11:51:34;101684.50;;;15.11;70.68
49104;BME280;34915;52.926;11.116;2022-11-02T11:54:06;101697.13;;;15.09;70.56
49104;BME280;34915;52.926;11.116;2022-11-02T11:56:38;101690.06;;;15.08;69.00
49104;BME280;34915;52.926;11.116;2022-11-02T11:59:04;101695.66;;;15.05;70.36
49104;BME280;34915;52.926;11.116;2022-11-02T12:01:38;101694.56;;;15.08;67.91
49104;BME280;34915;52.926;11.116;2022-11-02T12:04:04;101706.78;;;14.99;67.98
49104;BME280;34915;52.926;11.116;2022-11-02T12:17:58;101699.03;;;15.07;67.33
49104;BME280;34915;52.926;11.116;2022-11-02T12:20:58;101704.25;;;15.09;66.37
49104;BME280;34915;52.926;11.116;2022-11-02T12:29:37;101718.06;;;15.03;66.36
49104;BME280;34915;52.926;11.116;2022-11-02T12:43:30;101732.78;;;15.08;64.63
49104;BME280;34915;52.926;11.116;2022-11-02T12:51:33;101742.19;;;15.01;63.44
49104;BME280;34915;52.926;11.116;2022-11-02T12:54:09;101736.19;;;15.10;64.34
49104;BME280;34915;52.926;11.116;2022-11-02T12:56:51;101755.94;;;15.20;63.88
49104;BME280;34915;52.926;11.116;2022-11-02T13:01:49;101734.50;;;15.09;63.94
49104;BME280;34915;52.926;11.116;2022-11-02T13:04:27;101744.97;;;15.00;64.23
49104;BME280;34915;52.926;11.116;2022-11-02T13:07:00;101746.16;;;14.96;65.01
49104;BME280;34915;52.926;11.116;2022-11-02T13:09:32;101740.72;;;14.97;63.51
49104;BME280;34915;52.926;11.116;2022-11-02T13:12:12;101745.63;;;15.03;64.07
49104;BME280;34915;52.926;11.116;2022-11-02T13:14:41;101751.97;;;15.13;64.37
49104;BME280;34915;52.926;11.116;2022-11-02T13:19:52;101748.72;;;15.33;64.24
49104;BME280;34915;52.926;11.116;2022-11-02T13:22:22;101743.75;;;15.39;64.99
49104;BME280;34915;52.926;11.116;2022-11-02T13:24:54;101752.13;;;15.35;64.09
49104;BME280;34915;52.926;11.116;2022-11-02T13:27:30;101764.75;;;15.33;63.05
49104;BME280;34915;52.926;11.116;2022-11-02T13:30:05;101750.72;;;15.19;62.75
49104;BME280;34915;52.926;11.116;2022-11-02T13:32:40;101760.09;;;15.24;62.69
49104;BME280;34915;52.926;11.116;2022-11-02T13:35:31;101777.72;;;15.27;63.33
49104;BME280;34915;52.926;11.116;2022-11-02T13:40:31;101776.13;;;15.24;63.66
49104;BME280;34915;52.926;11.116;2022-11-02T13:48:59;101789.78;;;15.07;63.73
49104;BME280;34915;52.926;11.116;2022-11-02T13:51:34;101789.34;;;15.13;63.74
49104;BME280;34915;52.926;11.116;2022-11-02T13:54:40;101794.44;;;15.16;63.40
49104;BME280;34915;52.926;11.116;2022-11-02T13:59:45;101796.16;;;15.17;61.23
49104;BME280;34915;52.926;11.116;2022-11-02T14:02:15;101788.50;;;15.13;62.10
49104;BME280;34915;52.926;11.116;2022-11-02T14:04:43;101796.63;;;15.11;62.06
49104;BME280;34915;52.926;11.116;2022-11-02T14:07:23;101803.25;;;15.18;62.58
49104;BME280;34915;52.926;11.116;2022-11-02T14:09:56;101797.25;;;15.15;64.30
49104;BME280;34915;52.926;11.116;2022-11-02T14:20:32;101837.47;;;14.64;64.24
49104;BME280;34915;52.926;11.116;2022-11-02T14:25:54;101843.22;;;14.58;65.63
49104;BME280;34915;52.926;11.116;2022-11-02T14:38:58;101867.34;;;14.44;65.48
49104;BME280;34915;52.926;11.116;2022-11-02T14:41:51;101861.25;;;14.42;66.00
49104;BME280;34915;52.926;11.116;2022-11-02T14:52:02;101868.63;;;14.51;64.56
49104;BME280;34915;52.926;11.116;2022-11-02T14:54:36;101861.59;;;14.50;64.45
49104;BME280;34915;52.926;11.116;2022-11-02T14:57:27;101874.16;;;14.48;64.29
49104;BME280;34915;52.926;11.116;2022-11-02T14:59:56;101881.00;;;14.39;64.72
49104;BME280;34915;52.926;11.116;2022-11-02T15:02:36;101880.13;;;14.39;65.34
49104;BME280;34915;52.926;11.116;2022-11-02T15:05:05;101876.50;;;14.40;64.17
49104;BME280;34915;52.926;11.116;2022-11-02T15:07:39;101885.88;;;14.33;64.40
49104;BME280;34915;52.926;11.116;2022-11-02T15:12:41;101883.84;;;14.24;65.48
49104;BME280;34915;52.926;11.116;2022-11-02T15:15:33;101884.38;;;14.17;65.94